Time;durP1;ratioP1;P1;durP2;ratioP2;P2;SDS_P1;SDS_P2;PMS_P1;PMS_P2;Temp;Humidity;BMP_temperature;BMP_pressure;BME280_temperature;BME280_humidity;BME280_pressure;Samples;Min_cycle;Max_cycle;Signal;HPM_P1;HPM_P2
2022/11/05 00:10:03;;;;;;;24.13;15.07;;;;;;;-1.79;91.43;102254.91;4879591;29;20726;-72
2022/11/05 00:18:02;;;;;;;24.83;16.03;;;;;;;-1.85;93.30;102271.63;4897648;29;20035;-73
2022/11/05 00:20:28;;;;;;;22.27;15.43;;;;;;;-1.83;92.55;102269.81;4897726;29;20257;-73
2022/11/05 00:25:54;;;;;;;24.93;16.03;;;;;;;-1.92;92.84;102264.91;4897901;29;20149;-72
2022/11/05 00:28:19;;;;;;;26.00;16.20;;;;;;;-1.95;93.76;102272.81;4896913;29;20256;-72
2022/11/05 00:30:45;;;;;;;24.63;16.00;;;;;;;-2.10;92.68;102247.16;4897704;29;20333;-71
2022/11/05 00:33:10;;;;;;;21.83;14.80;;;;;;;-2.01;92.32;102273.88;4900677;29;20060;-70
2022/11/05 00:35:36;;;;;;;27.33;14.80;;;;;;;-2.04;92.09;102265.25;4904599;29;20136;-69
2022/11/05 00:38:01;;;;;;;30.73;17.37;;;;;;;-2.21;93.20;102266.59;4909565;29;20063;-73
2022/11/05 00:40:27;;;;;;;24.13;14.23;;;;;;;-2.15;93.27;102273.41;4909291;29;20032;-74
2022/11/05 00:45:36;;;;;;;25.67;17.13;;;;;;;-2.00;93.34;102272.09;4898363;29;20119;-72
2022/11/05 00:50:46;;;;;;;23.73;15.13;;;;;;;-2.10;93.12;102270.66;4898095;29;20032;-74
2022/11/05 00:53:12;;;;;;;22.40;14.17;;;;;;;-2.05;93.84;102279.19;4897934;29;20272;-72
2022/11/05 00:55:40;;;;;;;24.33;16.03;;;;;;;-1.95;93.93;102275.44;4902283;29;20028;-76
2022/11/05 00:58:09;;;;;;;25.35;15.63;;;;;;;-1.86;93.15;102275.16;4912021;29;20036;-71
2022/11/05 01:00:37;;;;;;;18.55;14.70;;;;;;;-1.91;92.01;102271.81;4912316;29;20080;-74
2022/11/05 01:03:06;;;;;;;19.85;13.25;;;;;;;-2.04;92.29;102273.06;4912037;29;20040;-73
2022/11/05 01:05:33;;;;;;;18.37;12.13;;;;;;;-2.04;93.17;102273.06;4904978;29;20115;-74
2022/11/05 01:07:59;;;;;;;21.57;13.70;;;;;;;-1.95;92.39;102278.03;4897707;29;20740;-72
2022/11/05 01:10:26;;;;;;;19.50;13.20;;;;;;;-2.08;92.13;102247.97;4898227;29;20725;-72
2022/11/05 01:12:52;;;;;;;17.30;12.23;;;;;;;-1.88;92.26;102288.25;4896972;29;20273;-73
2022/11/05 01:15:19;;;;;;;18.67;10.93;;;;;;;-1.87;92.47;102276.03;4896440;29;20328;-75
2022/11/05 01:17:44;;;;;;;18.73;10.53;;;;;;;-1.75;91.59;102286.09;4897059;29;20303;-73
2022/11/05 01:20:10;;;;;;;20.33;11.87;;;;;;;-1.74;90.87;102285.22;4880419;29;20257;-73
2022/11/05 01:22:36;;;;;;;16.33;12.77;;;;;;;-1.91;91.01;102290.09;4897370;29;20386;-75
2022/11/05 01:25:01;;;;;;;16.20;10.93;;;;;;;-1.96;91.99;102286.78;4897217;29;20024;-75
2022/11/05 01:27:29;;;;;;;14.37;10.90;;;;;;;-1.87;92.54;102283.88;4897032;29;20427;-75
2022/11/05 01:29:55;;;;;;;25.10;11.43;;;;;;;-1.84;91.48;102272.50;4897103;29;20630;-74
2022/11/05 01:32:20;;;;;;;16.87;11.57;;;;;;;-1.85;91.14;102265.56;4897217;29;20271;-73
2022/11/05 01:34:46;;;;;;;13.73;9.67;;;;;;;-1.83;91.58;102267.22;4864656;29;20028;-72
2022/11/05 01:37:12;;;;;;;12.83;10.30;;;;;;;-1.78;91.62;102264.47;4896707;29;20029;-75
2022/11/05 01:39:38;;;;;;;12.63;8.80;;;;;;;-1.74;90.89;102263.47;4899871;29;20580;-74
2022/11/05 01:42:13;;;;;;;13.07;9.47;;;;;;;-1.99;90.78;102252.94;4900879;29;20384;-75
2022/11/05 01:45:19;;;;;;;12.13;9.18;;;;;;;-1.92;91.72;102270.97;4900456;29;20035;-72
2022/11/05 01:47:56;;;;;;;12.85;9.75;;;;;;;-1.94;91.53;102277.13;4900676;29;20036;-73
2022/11/05 01:50:31;;;;;;;12.60;9.52;;;;;;;-1.98;91.21;102279.00;4900618;29;20028;-73
2022/11/05 01:53:07;;;;;;;13.18;9.45;;;;;;;-1.91;91.57;102280.50;4900628;29;20047;-73
2022/11/05 01:55:37;;;;;;;14.80;9.90;;;;;;;-1.89;91.06;102283.94;4900430;29;20029;-73
2022/11/05 01:58:06;;;;;;;11.23;8.73;;;;;;;-1.97;90.87;102291.16;4900428;29;20737;-72
2022/11/05 02:00:33;;;;;;;15.23;9.75;;;;;;;-2.15;91.63;102273.41;4900499;29;20096;-72
2022/11/05 02:02:59;;;;;;;11.67;8.47;;;;;;;-2.15;92.20;102276.00;4900295;29;20037;-72
2022/11/05 02:05:25;;;;;;;13.63;9.13;;;;;;;-2.05;93.13;102280.03;4900038;29;20273;-73
2022/11/05 02:07:51;;;;;;;12.97;9.30;;;;;;;-1.95;91.88;102280.66;4900203;29;20753;-73
2022/11/05 02:10:17;;;;;;;13.00;9.03;;;;;;;-1.94;91.55;102282.38;4899898;29;20264;-73
2022/11/05 02:12:45;;;;;;;13.68;8.75;;;;;;;-1.90;91.61;102283.97;4899880;29;20135;-71
2022/11/05 02:15:59;;;;;;;15.97;9.10;;;;;;;-1.81;91.34;102281.06;4885780;29;20392;-73
2022/11/05 02:18:37;;;;;;;11.68;8.73;;;;;;;-1.86;91.51;102275.16;4900458;29;20749;-73
2022/11/05 02:21:24;;;;;;;12.68;7.68;;;;;;;-1.89;90.96;102272.63;4899917;29;20032;-74
2022/11/05 02:24:14;;;;;;;11.87;8.30;;;;;;;-1.89;91.00;102275.25;4900199;29;20036;-72
2022/11/05 02:27:03;;;;;;;13.40;9.07;;;;;;;-1.87;91.87;102273.44;4883275;29;20343;-74
2022/11/05 02:30:10;;;;;;;12.40;8.77;;;;;;;-1.77;91.53;102272.25;4899869;29;20275;-72
2022/11/05 02:32:38;;;;;;;13.73;9.67;;;;;;;-1.72;90.59;102278.22;4841809;29;20262;-73
2022/11/05 02:35:17;;;;;;;12.73;9.95;;;;;;;-2.04;90.68;102226.09;4841824;29;20320;-72
2022/11/05 02:37:50;;;;;;;15.10;10.57;;;;;;;-1.81;91.37;102268.03;4874996;29;20064;-73
2022/11/05 02:40:51;;;;;;;12.35;9.60;;;;;;;-2.02;91.56;102258.25;4899601;29;20484;-72
2022/11/05 02:43:46;;;;;;;16.58;10.40;;;;;;;-2.20;92.11;102270.94;4898921;29;20605;-73
2022/11/05 02:46:25;;;;;;;11.00;8.30;;;;;;;-2.29;93.25;102270.34;4899496;29;20053;-73
2022/11/05 02:49:25;;;;;;;13.73;9.10;;;;;;;-2.30;93.07;102279.94;4899798;29;20261;-72
2022/11/05 02:51:57;;;;;;;14.35;9.95;;;;;;;-2.42;93.34;102274.19;4899442;29;20767;-73
2022/11/05 02:54:41;;;;;;;17.00;9.60;;;;;;;-2.42;94.29;102285.47;4899572;29;20025;-72
2022/11/05 02:57:07;;;;;;;13.35;9.43;;;;;;;-2.50;93.56;102282.22;4899276;29;20052;-73
2022/11/05 02:59:32;;;;;;;14.10;10.57;;;;;;;-2.60;94.33;102268.59;4899236;29;20069;-72
2022/11/05 03:02:00;;;;;;;16.07;9.37;;;;;;;-2.36;94.48;102280.06;4882874;29;20024;-72
2022/11/05 03:04:26;;;;;;;19.98;9.60;;;;;;;-2.20;93.81;102289.19;4897526;29;20020;-73
2022/11/05 03:07:14;;;;;;;17.75;10.23;;;;;;;-2.24;92.98;102284.97;4899152;29;20055;-71
2022/11/05 03:10:01;;;;;;;13.80;9.27;;;;;;;-2.30;93.37;102284.28;4899001;29;20088;-71
2022/11/05 03:12:36;;;;;;;15.80;9.75;;;;;;;-2.31;93.93;102282.56;4898809;29;20371;-74
2022/11/05 03:15:10;;;;;;;11.65;9.18;;;;;;;-2.39;93.93;102282.78;4898983;29;20481;-75
2022/11/05 03:17:50;;;;;;;12.52;8.52;;;;;;;-2.43;94.66;102278.53;4898978;29;20112;-75
2022/11/05 03:20:21;;;;;;;13.80;9.67;;;;;;;-2.44;93.60;102273.38;4898795;29;20218;-74
2022/11/05 03:22:53;;;;;;;14.57;9.80;;;;;;;-2.49;95.00;102281.31;4898656;29;20753;-76
2022/11/05 03:25:21;;;;;;;13.88;10.13;;;;;;;-2.51;95.19;102276.16;4899079;29;20031;-73
2022/11/05 03:27:53;;;;;;;13.20;9.75;;;;;;;-2.48;94.94;102272.59;4898550;29;20028;-74
2022/11/05 03:30:19;;;;;;;12.80;9.65;;;;;;;-2.44;95.49;102284.66;4898738;29;20076;-73
2022/11/05 03:32:51;;;;;;;13.03;9.03;;;;;;;-2.52;95.64;102278.81;4898777;29;20065;-75
2022/11/05 03:35:25;;;;;;;11.15;8.88;;;;;;;-2.55;96.20;102274.53;4898862;29;20043;-72
2022/11/05 03:37:55;;;;;;;13.30;9.75;;;;;;;-2.67;96.49;102289.63;4898561;29;20036;-74
2022/11/05 03:40:23;;;;;;;14.18;9.90;;;;;;;-2.61;97.29;102286.84;4881575;29;20041;-71
2022/11/05 03:42:53;;;;;;;12.02;8.57;;;;;;;-2.52;96.81;102277.03;4881305;29;20036;-71
2022/11/05 03:45:29;;;;;;;14.57;9.70;;;;;;;-2.39;96.09;102284.53;4898122;29;20123;-72
2022/11/05 03:47:59;;;;;;;24.15;11.00;;;;;;;-2.50;95.87;102275.25;4881419;29;20127;-70
2022/11/05 03:51:07;;;;;;;12.27;8.70;;;;;;;-2.35;96.53;102289.59;4898290;29;20127;-72
2022/11/05 03:53:40;;;;;;;15.63;9.77;;;;;;;-2.24;95.99;102286.72;4858345;29;20639;-70
2022/11/05 03:56:21;;;;;;;14.13;9.02;;;;;;;-2.23;95.53;102276.22;4893672;29;20048;-71
2022/11/05 03:58:48;;;;;;;14.73;9.82;;;;;;;-2.42;95.05;102237.66;4897937;29;20115;-71
2022/11/05 04:01:14;;;;;;;12.95;9.70;;;;;;;-2.12;94.38;102282.88;4897777;29;20037;-71
2022/11/05 04:03:40;;;;;;;18.77;10.32;;;;;;;-2.17;94.64;102287.41;4881065;29;20032;-70
2022/11/05 04:14:22;;;;;;;15.98;12.00;;;;;;;-2.41;96.92;102283.72;4897839;29;20037;-72
2022/11/05 04:17:06;;;;;;;18.93;13.03;;;;;;;-2.51;97.23;102277.91;4898058;29;20055;-72
2022/11/05 04:25:20;;;;;;;11.45;9.23;;;;;;;-2.24;98.02;102290.19;4897363;29;20480;-70
2022/11/05 04:27:46;;;;;;;16.08;8.73;;;;;;;-2.12;96.92;102298.56;4897348;29;20052;-69
2022/11/05 04:30:20;;;;;;;13.75;9.43;;;;;;;-2.20;96.14;102288.34;4897314;29;20032;-70
2022/11/05 04:33:01;;;;;;;13.45;9.63;;;;;;;-2.30;96.58;102290.38;4897407;29;20492;-70
2022/11/05 04:35:38;;;;;;;15.00;8.43;;;;;;;-2.45;97.98;102284.69;4897237;29;20369;-69
2022/11/05 04:38:06;;;;;;;15.52;10.23;;;;;;;-2.49;97.81;102283.94;4897841;29;20123;-71
2022/11/05 04:40:32;;;;;;;18.92;10.85;;;;;;;-2.47;99.01;102292.56;4898936;29;20037;-70
2022/11/05 04:42:59;;;;;;;17.73;9.35;;;;;;;-2.38;98.69;102294.91;4898548;29;20430;-71
2022/11/05 04:45:27;;;;;;;12.23;8.83;;;;;;;-2.19;98.21;102300.50;4899887;29;20445;-69
2022/11/05 04:47:52;;;;;;;13.95;7.32;;;;;;;-2.04;96.92;102297.41;4900070;29;20265;-70
2022/11/05 04:50:18;;;;;;;15.67;8.27;;;;;;;-2.03;96.89;102300.88;4897632;29;20033;-69
2022/11/05 04:52:43;;;;;;;11.53;7.97;;;;;;;-2.04;96.84;102307.84;4897136;29;20123;-70
2022/11/05 04:55:09;;;;;;;14.67;8.77;;;;;;;-2.12;96.97;102306.38;4897285;29;20042;-69
2022/11/05 04:57:34;;;;;;;15.00;7.67;;;;;;;-2.15;97.12;102302.09;4897310;29;20469;-69
2022/11/05 05:00:00;;;;;;;8.23;6.03;;;;;;;-2.14;97.76;102295.13;4897062;29;20040;-70
2022/11/05 05:02:26;;;;;;;9.87;6.33;;;;;;;-2.06;96.28;102303.59;4896802;29;20047;-70
2022/11/05 05:04:51;;;;;;;11.53;6.50;;;;;;;-2.12;96.47;102301.16;4896844;29;20120;-72
2022/11/05 05:07:17;;;;;;;13.63;6.30;;;;;;;-2.11;97.16;102302.88;4896854;29;20025;-70
2022/11/05 05:10:09;;;;;;;9.40;6.50;;;;;;;-2.20;96.35;102301.38;4896772;29;20093;-71
2022/11/05 05:12:35;;;;;;;9.70;7.30;;;;;;;-2.25;96.87;102306.75;4897884;29;20049;-71
2022/11/05 05:15:02;;;;;;;12.45;7.28;;;;;;;-2.30;97.52;102306.03;4902881;29;20051;-70
2022/11/05 05:17:29;;;;;;;14.43;7.20;;;;;;;-2.34;97.59;102301.75;4903313;29;20039;-68
2022/11/05 05:22:38;;;;;;;11.90;6.60;;;;;;;-2.28;97.30;102312.06;4903027;29;20029;-70
2022/11/05 05:25:04;;;;;;;11.57;6.20;;;;;;;-2.24;96.87;102315.44;4903273;29;20043;-70
2022/11/05 05:27:30;;;;;;;13.00;6.27;;;;;;;-2.15;97.13;102314.31;4903055;29;20136;-71
2022/11/05 05:29:57;;;;;;;11.70;6.47;;;;;;;-2.10;96.18;102310.66;4903138;29;20051;-70
2022/11/05 05:32:23;;;;;;;12.07;7.53;;;;;;;-2.17;95.75;102311.75;4903034;29;20028;-70
2022/11/05 05:34:49;;;;;;;16.48;7.78;;;;;;;-2.45;96.51;102288.16;4902892;29;20857;-72
2022/11/05 05:37:14;;;;;;;8.73;6.33;;;;;;;-2.49;97.38;102307.41;4903095;29;20036;-70
2022/11/05 05:39:40;;;;;;;10.30;7.27;;;;;;;-2.61;97.52;102310.31;4902890;29;20028;-71
2022/11/05 05:42:05;;;;;;;8.77;5.63;;;;;;;-2.50;97.86;102308.31;4906708;29;20088;-72
2022/11/05 05:44:31;;;;;;;9.50;5.87;;;;;;;-2.31;97.30;102309.53;4909944;29;20037;-71
2022/11/05 05:46:56;;;;;;;8.83;6.40;;;;;;;-2.23;96.49;102309.31;4910595;29;20024;-71
2022/11/05 05:49:22;;;;;;;14.70;6.20;;;;;;;-2.30;96.45;102316.47;4908315;29;20043;-70
2022/11/05 05:51:48;;;;;;;10.33;6.60;;;;;;;-2.48;96.63;102305.66;4903729;29;20037;-71
2022/11/05 05:54:14;;;;;;;13.35;8.32;;;;;;;-2.46;97.04;102315.16;4902549;29;20036;-71
2022/11/05 05:56:43;;;;;;;8.13;5.93;;;;;;;-2.42;97.67;102316.78;4902880;29;20392;-70
2022/11/05 05:59:09;;;;;;;8.15;6.40;;;;;;;-2.49;97.27;102320.47;4902852;29;20025;-70
2022/11/05 06:01:35;;;;;;;9.33;6.63;;;;;;;-2.62;97.95;102319.06;4902664;29;20572;-70
2022/11/05 06:04:01;;;;;;;8.73;7.13;;;;;;;-2.73;98.43;102321.09;4902751;29;20028;-70
2022/11/05 06:06:26;;;;;;;7.87;6.67;;;;;;;-2.77;99.56;102325.53;4902795;29;20036;-69
2022/11/05 06:08:54;;;;;;;13.27;7.47;;;;;;;-2.77;99.23;102322.94;4902655;29;20036;-70
2022/11/05 06:11:24;;;;;;;9.52;6.05;;;;;;;-2.97;99.65;102283.47;4902640;29;20482;-71
2022/11/05 06:13:50;;;;;;;10.23;7.32;;;;;;;-2.84;99.31;102298.78;4902808;29;20037;-71
2022/11/05 06:16:18;;;;;;;11.23;7.73;;;;;;;-2.68;99.82;102319.22;4885971;29;20100;-72
2022/11/05 06:18:44;;;;;;;10.38;6.82;;;;;;;-2.70;98.99;102318.41;4902651;29;20024;-72
2022/11/05 06:21:15;;;;;;;10.63;6.70;;;;;;;-2.63;99.29;102335.59;4902672;29;20062;-70
2022/11/05 06:23:43;;;;;;;10.88;6.20;;;;;;;-2.55;100.00;102337.13;4902256;29;20430;-71
2022/11/05 06:26:14;;;;;;;6.45;5.47;;;;;;;-2.35;98.56;102340.94;4899559;29;20477;-70
2022/11/05 06:28:40;;;;;;;14.77;6.75;;;;;;;-2.28;98.78;102342.50;4899338;29;20133;-72
2022/11/05 06:31:10;;;;;;;18.38;7.60;;;;;;;-2.25;97.92;102334.59;4899490;29;20109;-70
2022/11/05 06:33:36;;;;;;;12.18;7.63;;;;;;;-2.14;97.79;102347.34;4899509;29;20059;-71
2022/11/05 06:36:03;;;;;;;9.00;7.40;;;;;;;-2.10;97.32;102349.81;4899273;29;20388;-71
2022/11/05 06:38:34;;;;;;;13.10;7.85;;;;;;;-2.16;96.78;102341.31;4882868;29;20373;-69
2022/11/05 06:41:00;;;;;;;13.98;8.80;;;;;;;-2.24;97.92;102329.31;4899754;29;20081;-72
2022/11/05 06:43:27;;;;;;;12.55;8.82;;;;;;;-2.12;97.71;102349.00;4899140;29;20072;-71
2022/11/05 06:45:52;;;;;;;16.27;9.50;;;;;;;-2.24;97.86;102329.31;4899263;29;20048;-70
2022/11/05 06:48:18;;;;;;;9.73;7.63;;;;;;;-2.02;96.86;102352.22;4899004;29;20074;-71
2022/11/05 06:50:44;;;;;;;16.90;9.47;;;;;;;-2.04;96.85;102349.63;4898959;29;20025;-71
2022/11/05 06:53:10;;;;;;;9.83;7.17;;;;;;;-2.01;97.49;102365.25;4898874;29;20052;-71
2022/11/05 06:55:35;;;;;;;12.80;7.20;;;;;;;-2.01;97.06;102353.94;4899068;29;20086;-71
2022/11/05 06:58:01;;;;;;;12.00;7.87;;;;;;;-2.13;96.71;102338.59;4899153;29;20489;-71
2022/11/05 07:00:26;;;;;;;11.03;8.17;;;;;;;-2.02;97.30;102357.44;4898916;29;20020;-70
2022/11/05 07:02:54;;;;;;;14.13;9.43;;;;;;;-2.13;97.46;102351.66;4899106;29;20056;-70
2022/11/05 07:05:21;;;;;;;17.73;10.52;;;;;;;-2.17;97.89;102357.88;4898903;29;20029;-70
2022/11/05 07:07:46;;;;;;;23.50;13.50;;;;;;;-2.12;98.75;102362.06;4899579;29;20028;-69
2022/11/05 07:10:15;;;;;;;27.13;13.00;;;;;;;-2.09;97.75;102354.13;4899356;29;20039;-71
2022/11/05 07:12:43;;;;;;;34.08;15.85;;;;;;;-2.04;98.93;102340.94;4898654;29;20056;-69
2022/11/05 07:15:11;;;;;;;40.80;19.15;;;;;;;-1.85;98.67;102355.19;4898711;29;20067;-71
2022/11/05 07:17:36;;;;;;;19.63;12.27;;;;;;;-1.82;97.36;102343.81;4898786;29;20033;-70
2022/11/05 07:20:08;;;;;;;17.40;9.43;;;;;;;-1.84;97.72;102349.06;4898303;29;20296;-70
2022/11/05 07:22:34;;;;;;;16.63;8.27;;;;;;;-1.88;98.64;102355.28;4899178;29;20036;-73
2022/11/05 07:25:00;;;;;;;18.48;9.65;;;;;;;-2.16;98.95;102334.31;4898552;29;20079;-71
2022/11/05 07:27:25;;;;;;;17.70;10.47;;;;;;;-2.14;99.59;102344.72;4898543;29;20443;-71
2022/11/05 07:29:51;;;;;;;19.67;11.70;;;;;;;-2.10;100.00;102348.97;4898324;29;20040;-70
2022/11/05 07:32:17;;;;;;;16.67;11.13;;;;;;;-2.04;99.88;102344.41;4898506;29;20461;-72
2022/11/05 07:34:42;;;;;;;28.93;14.87;;;;;;;-1.93;100.00;102344.13;4898619;29;20036;-72
2022/11/05 07:37:08;;;;;;;23.33;13.57;;;;;;;-1.88;99.25;102340.47;4899480;29;20036;-70
2022/11/05 07:39:33;;;;;;;27.47;14.07;;;;;;;-2.10;99.51;102313.25;4898784;29;20024;-73
2022/11/05 07:41:59;;;;;;;29.93;16.47;;;;;;;-1.85;100.00;102349.13;4898300;29;20063;-71
2022/11/05 07:44:24;;;;;;;27.60;16.43;;;;;;;-1.66;99.82;102348.53;4898562;29;20030;-70
2022/11/05 07:46:50;;;;;;;29.40;16.53;;;;;;;-1.52;98.64;102344.66;4898114;29;20477;-71
2022/11/05 07:49:16;;;;;;;30.27;17.03;;;;;;;-1.43;98.25;102349.63;4898537;29;20456;-74
2022/11/05 07:51:42;;;;;;;27.53;16.07;;;;;;;-1.48;98.29;102346.25;4898715;29;20028;-73
2022/11/05 07:54:08;;;;;;;29.63;18.00;;;;;;;-1.52;98.71;102323.75;4898219;29;20784;-72
2022/11/05 07:56:33;;;;;;;30.33;16.20;;;;;;;-1.49;98.40;102324.50;4881987;29;20040;-76
2022/11/05 07:58:59;;;;;;;36.03;17.23;;;;;;;-1.36;97.94;102338.91;4898825;29;20088;-76
2022/11/05 08:01:25;;;;;;;35.10;16.33;;;;;;;-1.31;98.29;102336.16;4898479;29;20129;-77
2022/11/05 08:03:50;;;;;;;30.80;15.73;;;;;;;-1.18;98.42;102347.91;4866951;29;20088;-80
2022/11/05 08:06:19;;;;;;;28.90;16.20;;;;;;;-1.13;97.60;102346.03;4898910;29;20384;-77
2022/11/05 08:08:47;;;;;;;31.38;18.95;;;;;;;-1.29;97.52;102318.66;4882263;29;20437;-79
2022/11/05 08:11:13;;;;;;;29.80;18.30;;;;;;;-1.25;98.29;102336.81;4883560;29;20063;-78
2022/11/05 08:13:41;;;;;;;31.30;18.60;;;;;;;-1.43;98.72;102332.19;4882923;29;20557;-76
2022/11/05 08:16:08;;;;;;;32.28;17.40;;;;;;;-1.28;99.22;102336.06;4866210;29;20075;-74
2022/11/05 08:18:34;;;;;;;31.57;17.67;;;;;;;-1.33;99.38;102322.28;4898854;29;20037;-76
2022/11/05 08:21:03;;;;;;;36.53;19.57;;;;;;;-1.15;99.18;102336.53;4866621;29;20401;-76
2022/11/05 08:23:31;;;;;;;31.53;16.97;;;;;;;-1.07;98.89;102340.59;4898885;29;20040;-75
2022/11/05 08:25:57;;;;;;;30.63;14.97;;;;;;;-1.39;99.06;102314.63;4900818;29;20279;-77
2022/11/05 08:28:24;;;;;;;24.50;13.80;;;;;;;-1.28;99.13;102341.28;4902032;29;20268;-76
2022/11/05 08:30:54;;;;;;;26.17;16.47;;;;;;;-1.42;99.77;102333.03;4900746;29;20261;-74
2022/11/05 08:33:21;;;;;;;27.47;16.37;;;;;;;-1.51;100.00;102328.06;4900046;29;20403;-75
2022/11/05 08:35:47;;;;;;;28.27;15.80;;;;;;;-1.51;100.00;102339.38;4900044;29;20320;-74
2022/11/05 08:38:16;;;;;;;23.93;13.77;;;;;;;-1.46;100.00;102336.63;4884850;29;20277;-76
2022/11/05 08:40:44;;;;;;;28.98;13.55;;;;;;;-1.39;100.00;102339.00;4901271;29;20268;-77
2022/11/05 08:43:11;;;;;;;31.20;18.67;;;;;;;-1.36;100.00;102338.06;4900017;29;20377;-76
2022/11/05 08:45:37;;;;;;;25.77;13.97;;;;;;;-1.31;100.00;102336.16;4898086;29;20249;-77
2022/11/05 08:48:04;;;;;;;23.53;15.37;;;;;;;-1.17;100.00;102338.31;4898616;29;20261;-76
2022/11/05 08:50:31;;;;;;;24.47;12.77;;;;;;;-1.08;99.93;102327.59;4882388;29;20272;-77
2022/11/05 08:52:57;;;;;;;18.63;10.77;;;;;;;-1.05;99.21;102336.19;4898900;29;20355;-74
2022/11/05 08:55:22;;;;;;;19.60;11.80;;;;;;;-1.13;99.11;102319.03;4898047;29;20063;-74
2022/11/05 08:57:55;;;;;;;19.10;11.47;;;;;;;-1.03;100.00;102331.75;4898191;29;20265;-73
2022/11/05 09:00:25;;;;;;;18.97;11.10;;;;;;;-1.04;98.37;102330.03;4897945;29;20029;-73
2022/11/05 09:02:51;;;;;;;15.47;10.90;;;;;;;-1.03;99.36;102331.75;4881917;29;20268;-74
2022/11/05 09:05:17;;;;;;;20.83;14.00;;;;;;;-0.98;98.68;102331.59;4899750;29;20269;-74
2022/11/05 09:07:43;;;;;;;17.87;11.80;;;;;;;-0.99;98.41;102332.50;4902169;29;20028;-72
2022/11/05 09:10:08;;;;;;;19.17;12.43;;;;;;;-1.03;98.37;102326.53;4901309;29;20297;-75
2022/11/05 09:12:34;;;;;;;17.53;10.77;;;;;;;-1.15;98.68;102323.47;4884834;29;20397;-76
2022/11/05 09:15:04;;;;;;;20.00;12.97;;;;;;;-1.29;99.02;102309.06;4884056;29;20304;-76
2022/11/05 09:17:33;;;;;;;17.10;12.00;;;;;;;-1.14;99.38;102333.03;4898445;29;20264;-79
2022/11/05 09:20:20;;;;;;;17.15;12.13;;;;;;;-1.12;99.84;102319.00;4899528;29;20036;-79
2022/11/05 09:22:54;;;;;;;19.37;12.97;;;;;;;-1.11;99.91;102310.25;4901342;29;20033;-75
2022/11/05 09:25:20;;;;;;;19.07;12.97;;;;;;;-1.14;100.00;102302.50;4900512;29;20264;-72
2022/11/05 09:27:46;;;;;;;20.03;13.73;;;;;;;-1.00;100.00;102317.72;4901034;29;20473;-75
2022/11/05 09:30:12;;;;;;;17.27;11.90;;;;;;;-0.98;100.00;102303.69;4899646;29;20080;-77
2022/11/05 09:32:37;;;;;;;19.37;12.47;;;;;;;-0.83;99.76;102306.72;4899253;29;20045;-74
2022/11/05 09:35:04;;;;;;;20.03;12.90;;;;;;;-0.88;99.72;102292.91;4881558;29;20300;-75
2022/11/05 09:37:36;;;;;;;19.13;12.50;;;;;;;-0.77;99.09;102296.03;4891413;29;20028;-75
2022/11/05 09:40:03;;;;;;;21.37;12.80;;;;;;;-0.70;99.70;102305.38;4908075;29;20268;-73
2022/11/05 09:42:36;;;;;;;20.13;14.37;;;;;;;-0.67;99.48;102308.72;4916541;29;20651;-75
2022/11/05 09:45:13;;;;;;;26.97;12.67;;;;;;;-0.73;99.20;102289.78;4916339;29;20356;-75
2022/11/05 09:47:44;;;;;;;26.93;16.57;;;;;;;-0.63;98.86;102299.88;4915963;29;20271;-75
2022/11/05 09:50:18;;;;;;;24.83;13.83;;;;;;;-0.71;98.80;102291.44;4915989;29;20295;-76
2022/11/05 09:52:43;;;;;;;24.33;13.53;;;;;;;-0.81;99.08;102310.13;4916339;29;20704;-76
2022/11/05 09:55:43;;;;;;;18.33;12.03;;;;;;;-0.87;100.00;102298.09;4899210;29;20292;-76
2022/11/05 09:58:18;;;;;;;16.97;11.20;;;;;;;-0.89;100.00;102301.66;4888652;29;20040;-77
2022/11/05 10:00:49;;;;;;;16.67;10.57;;;;;;;-0.94;99.97;102280.91;4919481;29;20744;-77
2022/11/05 10:03:21;;;;;;;17.37;11.70;;;;;;;-0.71;99.97;102307.13;4920219;29;20301;-78
2022/11/05 10:05:48;;;;;;;17.70;10.50;;;;;;;-0.80;100.00;102291.75;4920288;29;20280;-80
2022/11/05 10:08:23;;;;;;;18.17;11.73;;;;;;;-0.63;99.60;102301.63;4921144;29;20252;-77
2022/11/05 10:10:54;;;;;;;15.00;10.50;;;;;;;-0.59;99.69;102299.75;4919812;29;20612;-77
2022/11/05 10:13:41;;;;;;;17.70;12.37;;;;;;;-0.63;99.12;102296.41;4919536;29;20276;-75
2022/11/05 10:16:19;;;;;;;19.23;12.18;;;;;;;-0.65;99.49;102292.97;4919086;29;20303;-73
2022/11/05 10:18:51;;;;;;;17.30;11.23;;;;;;;-0.86;99.45;102264.97;4886923;29;20036;-72
2022/11/05 10:21:18;;;;;;;19.83;11.90;;;;;;;-0.74;99.35;102290.69;4918712;29;20252;-73
2022/11/05 10:23:45;;;;;;;23.80;14.10;;;;;;;-0.74;99.69;102290.69;4918752;29;20613;-74
2022/11/05 10:26:16;;;;;;;17.07;11.80;;;;;;;-0.78;99.92;102295.19;4918940;29;20260;-74
2022/11/05 10:28:42;;;;;;;21.97;14.23;;;;;;;-0.75;100.00;102294.22;4918614;29;20875;-73
2022/11/05 10:31:12;;;;;;;15.73;10.50;;;;;;;-0.73;100.00;102292.41;4902186;29;20300;-73
2022/11/05 10:33:40;;;;;;;16.33;9.77;;;;;;;-0.58;100.00;102304.06;4902409;29;20032;-77
2022/11/05 10:36:10;;;;;;;16.93;11.23;;;;;;;-0.62;98.70;102298.09;4918952;29;20772;-75
2022/11/05 10:38:35;;;;;;;14.87;11.33;;;;;;;-0.72;99.44;102297.56;4919358;29;20272;-74
2022/11/05 10:41:27;;;;;;;17.27;9.97;;;;;;;-0.70;100.00;102316.69;4919501;29;20416;-78
2022/11/05 10:44:23;;;;;;;14.20;10.53;;;;;;;-0.53;100.00;102316.13;4904539;29;20037;-78
2022/11/05 10:47:10;;;;;;;21.63;9.90;;;;;;;-0.39;99.38;102311.25;4932756;29;20296;-77
2022/11/05 10:49:57;;;;;;;17.63;10.67;;;;;;;-0.37;98.89;102304.19;4926358;29;20357;-73
2022/11/05 10:52:24;;;;;;;16.33;9.67;;;;;;;-0.36;98.63;102297.19;4919914;29;20260;-74
2022/11/05 10:54:52;;;;;;;15.37;9.23;;;;;;;-0.46;98.32;102274.88;4919286;29;20347;-76
2022/11/05 10:57:37;;;;;;;16.05;9.85;;;;;;;-0.27;97.93;102301.25;4918737;29;20303;-78
2022/11/05 11:00:15;;;;;;;15.43;10.33;;;;;;;-0.32;98.48;102309.25;4918877;29;20071;-74
2022/11/05 11:02:59;;;;;;;15.57;11.10;;;;;;;-0.37;98.28;102295.47;4919479;29;20347;-72
2022/11/05 11:05:26;;;;;;;16.07;12.10;;;;;;;-0.38;98.53;102294.63;4919562;29;20023;-74
2022/11/05 11:07:55;;;;;;;17.90;11.20;;;;;;;-0.42;99.24;102285.19;4919871;29;20252;-74
2022/11/05 11:10:21;;;;;;;17.88;12.30;;;;;;;-0.38;98.85;102284.16;4918114;29;20799;-73
2022/11/05 11:12:49;;;;;;;16.10;10.30;;;;;;;-0.38;98.21;102285.91;4901765;29;20441;-76
2022/11/05 11:15:26;;;;;;;16.10;9.30;;;;;;;-0.45;98.96;102282.66;4918084;29;20293;-77
2022/11/05 11:17:54;;;;;;;14.27;9.67;;;;;;;-0.57;99.21;102283.13;4918659;29;20284;-77
2022/11/05 11:20:20;;;;;;;15.83;9.20;;;;;;;-0.64;99.60;102286.84;4918539;29;20272;-76
2022/11/05 11:23:02;;;;;;;13.40;9.30;;;;;;;-0.67;100.00;102279.94;4918912;29;20268;-76
2022/11/05 11:25:36;;;;;;;10.47;8.90;;;;;;;-0.57;100.00;102283.13;4918990;29;20290;-75
2022/11/05 11:28:38;;;;;;;15.33;9.43;;;;;;;-0.45;99.87;102287.91;4918931;29;20283;-81
2022/11/05 11:31:16;;;;;;;18.40;10.60;;;;;;;-0.47;99.29;102274.03;4874657;29;20280;-77
2022/11/05 11:33:45;;;;;;;17.83;10.00;;;;;;;-0.50;99.26;102279.38;4918556;29;20272;-75
2022/11/05 11:36:11;;;;;;;;;;;;;;;-0.52;99.56;102281.19;4917948;29;20288;-73
2022/11/05 11:38:38;;;;;;;14.93;10.67;;;;;;;-0.45;99.70;102282.66;4900943;29;20366;-76
2022/11/05 11:41:26;;;;;;;13.30;10.30;;;;;;;-0.33;99.32;102281.38;4918395;29;20260;-76
2022/11/05 11:44:01;;;;;;;14.30;7.73;;;;;;;-0.31;98.76;102283.00;4901919;29;20312;-76
2022/11/05 11:46:31;;;;;;;14.27;7.77;;;;;;;-0.28;98.24;102289.94;4917872;29;20272;-72
2022/11/05 11:48:58;;;;;;;13.73;7.70;;;;;;;-0.42;98.51;102285.19;4900523;29;20295;-76
2022/11/05 11:51:24;;;;;;;12.37;8.13;;;;;;;-0.39;98.74;102294.69;4901486;29;20271;-82
2022/11/05 11:53:55;;;;;;;8.97;6.90;;;;;;;-0.41;99.16;102289.50;4918322;29;20272;-79
2022/11/05 11:56:21;;;;;;;10.23;6.80;;;;;;;-0.37;99.46;102295.47;4917966;29;20032;-73
2022/11/05 11:58:50;;;;;;;11.53;8.90;;;;;;;-0.32;98.82;102296.16;4917837;29;20266;-78
2022/11/05 12:01:40;;;;;;;26.70;11.27;;;;;;;-0.38;98.48;102294.63;4900549;29;20127;-77
2022/11/05 12:04:06;;;;;;;12.77;9.27;;;;;;;-0.34;99.07;102290.13;4918016;29;20264;-75
2022/11/05 12:06:39;;;;;;;14.47;9.23;;;;;;;-0.26;98.95;102289.88;4917842;29;20312;-77
2022/11/05 12:09:20;;;;;;;10.70;9.23;;;;;;;-0.22;98.08;102289.69;4918128;29;20024;-77